Aeroporto :
LOGIN :

Iscrizione | Disclaimer

   EN    FR    IT 

 










Sommario :    VFR   VFR Marginale   IFR   IFR Intensivo   IFR Molto Intensivo
Visibilità : 
Base nubi : 
>= 8 km
>= 3000ft
5 / 8 km
1000 / 3000 ft
1500m / 5 km
500 / 1000 ft
800 / 1500m
200 / 500 ft
< 800m
< 200 ft
Simboli :   Temporali  Nebbia  Neve Forte  Precipitazioni Forti  Vento > 20 kt
SIGMETs :   Varie  Temporali  Ghiacco  Turbolenza  Onda orograficha  Ceneri Vulcaniche






- Altitudine del aeroporto : 1455 ft


ETIH - Hohenfels Army Air Field

ULTIMO METAR :
  • 251621Z AUTO 22009KT 9999 BKN027 OVC037 08/04 A2955 RMK AO2 CIG 027V037 SLP014 $

METARs OBSOLETI :
  • 251556Z AUTO 21008KT 9999 BKN026 OVC033 08/04 A2956 RMK AO2 SLP018 T00790043 $
  • 251456Z AUTO 21005KT 9999 BKN019 OVC026 08/05 A2957 RMK AO2 RAB1355E34 SLP025 P0001 60004 T00760051 57020 $
  • 251434Z AUTO 22006G14KT 9999 BKN020 OVC028 08/05 A2957 RMK AO2 RAB1355E34 CIG 020V025 SLP025 $
  • 251357Z AUTO 22004KT 9999 -RA FEW018 BKN025 07/05 A2958 RMK AO2 RAB55 SLP029 $

Previsioni scadute.



MetMap, La meteo Aeronautica in un colpo d'occhio ! - Copyright ORBIFLY Dicembre 2007 - Disclaimer

ORBIFLY MET'MAP TEAM :

Programmazione e sviluppo : Alexandra Zaïnal
Concezione : Baudouin d'Aumeries
Aiuto per la programmazione : Marc-Olivier Méhu
Supporto tecnico e logistico : Manuel Goepfert
Aiuto per la traduzione : Arnaldo La Scala

Contatto : metmap@orbifly.com




FONTI E CREDITI :

   NOAA